createdAt,value
2023-04-18T00:01:09.789Z,103227.78
2023-04-18T00:03:38.989Z,103229.59
2023-04-18T00:06:08.616Z,103224.25
2023-04-18T00:08:36.620Z,103217.13
2023-04-18T00:11:04.578Z,103218.16
2023-04-18T00:13:32.705Z,103220.84
2023-04-18T00:16:01.905Z,103226.19
2023-04-18T00:18:29.848Z,103225.25
2023-04-18T00:20:57.922Z,103228.91
2023-04-18T00:23:28.303Z,103229.78
2023-04-18T00:25:56.196Z,103226.22
2023-04-18T00:28:24.181Z,103228.09
2023-04-18T00:30:52.224Z,103229.00
2023-04-18T00:33:20.285Z,103233.50
2023-04-18T00:35:48.240Z,103204.53
2023-04-18T00:38:16.335Z,103223.75
2023-04-18T00:40:45.737Z,103221.22
2023-04-18T00:43:14.709Z,103222.06
2023-04-18T00:45:42.799Z,103227.41
2023-04-18T00:48:12.333Z,103221.31
2023-04-18T00:50:41.778Z,103236.34
2023-04-18T00:53:11.128Z,103227.50
2023-04-18T00:55:40.032Z,103235.53
2023-04-18T00:58:09.953Z,103239.13
2023-04-18T01:00:38.034Z,103244.56
2023-04-18T01:03:06.729Z,103243.66
2023-04-18T01:05:36.216Z,103241.91
2023-04-18T01:08:05.554Z,103246.38
2023-04-18T01:10:37.454Z,103243.69
2023-04-18T01:13:14.934Z,103249.13
2023-04-18T01:15:43.780Z,103234.91
2023-04-18T01:18:13.202Z,103234.91
2023-04-18T01:20:43.573Z,103237.59
2023-04-18T01:23:11.606Z,103237.59
2023-04-18T01:25:41.039Z,103236.78
2023-04-18T01:28:09.067Z,103212.31
2023-04-18T01:30:37.340Z,103237.69
2023-04-18T01:33:06.388Z,103239.47
2023-04-18T01:35:34.931Z,103239.50
2023-04-18T01:38:02.982Z,103243.97
2023-04-18T01:40:31.454Z,103248.47
2023-04-18T01:43:02.161Z,103245.78
2023-04-18T01:45:30.292Z,103242.22
2023-04-18T01:47:58.448Z,103243.97
2023-04-18T01:50:26.681Z,103243.13
2023-04-18T01:52:54.925Z,103236.16
2023-04-18T01:55:23.041Z,103244.94
2023-04-18T01:57:51.758Z,103243.19
2023-04-18T02:00:22.748Z,103247.69
2023-04-18T02:02:51.503Z,103242.31
2023-04-18T02:05:22.243Z,103245.91
2023-04-18T02:07:50.864Z,103239.91
2023-04-18T02:10:19.678Z,103246.78
2023-04-18T02:12:47.731Z,103249.53
2023-04-18T02:15:15.745Z,103249.53
2023-04-18T02:17:45.636Z,103253.13
2023-04-18T02:20:14.762Z,103252.31
2023-04-18T02:22:42.889Z,103254.91
2023-04-18T02:25:11.555Z,103253.13
2023-04-18T02:27:40.339Z,103248.69
2023-04-18T02:30:09.403Z,103252.31
2023-04-18T02:32:37.589Z,103249.66
2023-04-18T02:35:07.817Z,103246.97
2023-04-18T02:37:35.815Z,103255.06
2023-04-18T02:40:05.644Z,103247.03
2023-04-18T02:42:33.796Z,103246.22
2023-04-18T02:45:02.805Z,103246.25
2023-04-18T02:47:37.514Z,103247.19
2023-04-18T02:50:13.341Z,103263.19
2023-04-18T02:52:41.381Z,103232.59
2023-04-18T02:55:10.621Z,103255.25
2023-04-18T02:57:42.121Z,103257.06
2023-04-18T03:00:46.307Z,103267.00
2023-04-18T03:03:32.665Z,103267.00
2023-04-18T03:06:19.671Z,103273.28
2023-04-18T03:08:47.928Z,103255.47
2023-04-18T03:11:16.844Z,103264.41
2023-04-18T03:13:45.079Z,103258.25
2023-04-18T03:16:13.980Z,103275.13
2023-04-18T03:18:43.620Z,103268.88
2023-04-18T03:21:12.480Z,103267.09
2023-04-18T03:23:42.208Z,103265.34
2023-04-18T03:26:12.612Z,103266.28
2023-04-18T03:28:41.943Z,103270.75
2023-04-18T03:31:10.606Z,103267.19
2023-04-18T03:33:42.367Z,103272.53
2023-04-18T03:36:12.169Z,103263.88
2023-04-18T03:38:43.057Z,103277.88
2023-04-18T03:41:11.401Z,103267.34
2023-04-18T03:43:39.985Z,103267.25
2023-04-18T03:46:08.076Z,103272.59
2023-04-18T03:48:37.354Z,103280.56
2023-04-18T03:51:11.767Z,103278.84
2023-04-18T03:53:41.787Z,103280.56
2023-04-18T03:56:09.901Z,103281.44
2023-04-18T03:59:04.207Z,103282.34
2023-04-18T04:01:32.894Z,103292.09
2023-04-18T04:04:02.845Z,103294.78
2023-04-18T04:06:32.336Z,103298.31
2023-04-18T04:09:03.070Z,103280.75
2023-04-18T04:11:31.205Z,103298.25
2023-04-18T04:13:59.444Z,103304.47
2023-04-18T04:16:34.141Z,103308.94
2023-04-18T04:19:03.349Z,103306.22
2023-04-18T04:21:37.681Z,103303.50
2023-04-18T04:24:09.535Z,103307.06
2023-04-18T04:26:42.720Z,103312.41
2023-04-18T04:29:21.587Z,103307.00
2023-04-18T04:31:50.316Z,103312.31
2023-04-18T04:34:29.655Z,103314.88
2023-04-18T04:36:57.700Z,103320.13
2023-04-18T04:39:29.148Z,103316.50
2023-04-18T04:42:16.016Z,103316.47
2023-04-18T04:44:54.709Z,103319.88
2023-04-18T04:47:23.746Z,103330.25
2023-04-18T04:49:51.756Z,103321.34
2023-04-18T04:52:19.851Z,103323.69
2023-04-18T04:54:49.344Z,103336.84
2023-04-18T04:57:19.451Z,103332.28
2023-04-18T04:59:47.487Z,103335.69
2023-04-18T05:02:15.574Z,103338.28
2023-04-18T05:04:43.783Z,103340.78
2023-04-18T05:07:11.936Z,103334.53
2023-04-18T05:09:40.061Z,103314.22
2023-04-18T05:12:09.822Z,103342.13
2023-04-18T05:14:37.813Z,103342.09
2023-04-18T05:17:07.191Z,103341.06
2023-04-18T05:19:35.330Z,103340.88
2023-04-18T05:22:03.428Z,103349.72
2023-04-18T05:24:32.559Z,103340.69
2023-04-18T05:27:01.237Z,103341.41
2023-04-18T05:29:30.542Z,103352.91
2023-04-18T05:31:58.453Z,103343.00
2023-04-18T05:34:26.377Z,103337.63
2023-04-18T05:36:54.372Z,103316.38
2023-04-18T05:39:22.269Z,103350.75
2023-04-18T05:41:50.417Z,103347.06
2023-04-18T05:44:18.560Z,103344.25
2023-04-18T05:46:51.266Z,103341.53
2023-04-18T05:49:19.391Z,103342.31
2023-04-18T05:51:49.631Z,103352.03
2023-04-18T05:54:17.731Z,103360.88
2023-04-18T05:56:45.853Z,103367.03
2023-04-18T05:59:14.705Z,103354.44
2023-04-18T06:01:42.898Z,103370.41
2023-04-18T06:04:12.477Z,103362.25
2023-04-18T06:06:40.531Z,103364.88
2023-04-18T06:09:08.884Z,103378.19
2023-04-18T06:11:36.867Z,103378.13
2023-04-18T06:14:04.883Z,103370.91
2023-04-18T06:16:32.912Z,103362.72
2023-04-18T06:19:02.406Z,103363.69
2023-04-18T06:21:32.091Z,103353.94
2023-04-18T06:24:01.304Z,103371.44
2023-04-18T06:26:30.174Z,103370.44
2023-04-18T06:28:58.165Z,103382.88
2023-04-18T06:31:26.227Z,103374.75
2023-04-18T06:33:54.353Z,103345.91
2023-04-18T06:36:22.514Z,103382.66
2023-04-18T06:38:51.916Z,103378.03
2023-04-18T06:41:19.948Z,103402.16
2023-04-18T06:44:02.086Z,103391.34
2023-04-18T06:46:31.530Z,103386.78
2023-04-18T06:48:59.743Z,103394.84
2023-04-18T06:51:28.173Z,103383.06
2023-04-18T06:53:57.558Z,103395.50
2023-04-18T06:56:25.681Z,103389.16
2023-04-18T06:58:53.869Z,103393.53
2023-04-18T07:01:21.959Z,103399.69
2023-04-18T07:03:49.946Z,103391.47
2023-04-18T07:06:18.760Z,103390.47
2023-04-18T07:08:46.715Z,103400.22
2023-04-18T07:11:18.512Z,103399.38
2023-04-18T07:13:47.383Z,103392.09
2023-04-18T07:16:15.462Z,103363.91
2023-04-18T07:18:43.537Z,103380.41
2023-04-18T07:21:11.654Z,103416.78
2023-04-18T07:23:39.719Z,103411.34
2023-04-18T07:26:09.482Z,103398.81
2023-04-18T07:28:38.939Z,103401.38
2023-04-18T07:31:11.068Z,103393.25
2023-04-18T07:33:39.599Z,103399.44
2023-04-18T07:36:08.348Z,103397.59
2023-04-18T07:38:36.429Z,103401.06
2023-04-18T07:41:04.888Z,103403.66
2023-04-18T07:43:32.977Z,103399.09
2023-04-18T07:46:02.346Z,103393.03
2023-04-18T07:48:30.390Z,103414.91
2023-04-18T07:50:58.413Z,103402.28
2023-04-18T07:53:26.553Z,103399.66
2023-04-18T07:55:55.504Z,103408.41
2023-04-18T07:58:23.504Z,103402.03
2023-04-18T08:00:51.564Z,103397.69
2023-04-18T08:03:21.362Z,103391.28
2023-04-18T08:05:50.156Z,103411.66
2023-04-18T08:08:18.484Z,103319.56
2023-04-18T08:10:46.594Z,103409.66
2023-04-18T08:13:14.725Z,103403.28
2023-04-18T08:15:43.551Z,103406.91
2023-04-18T08:18:11.617Z,103404.19
2023-04-18T08:20:41.159Z,103396.91
2023-04-18T08:23:12.224Z,103406.75
2023-04-18T08:25:41.213Z,103404.78
2023-04-18T08:28:09.645Z,103404.66
2023-04-18T08:30:37.891Z,103413.53
2023-04-18T08:33:05.842Z,103421.56
2023-04-18T08:35:35.278Z,103396.59
2023-04-18T08:38:04.621Z,103406.16
2023-04-18T08:40:32.719Z,103410.44
2023-04-18T08:43:04.978Z,103421.94
2023-04-18T08:45:33.367Z,103417.31
2023-04-18T08:48:03.582Z,103381.22
2023-04-18T08:50:31.969Z,103425.19
2023-04-18T08:53:04.121Z,103380.06
2023-04-18T08:55:33.577Z,103419.53
2023-04-18T08:58:01.599Z,103411.47
2023-04-18T09:00:30.662Z,103411.63
2023-04-18T09:02:59.126Z,103450.69
2023-04-18T09:05:28.288Z,103418.41
2023-04-18T09:07:57.386Z,103412.03
2023-04-18T09:10:33.057Z,103441.63
2023-04-18T09:13:03.074Z,103419.09
2023-04-18T09:15:31.920Z,103419.09
2023-04-18T09:18:03.113Z,103410.91
2023-04-18T09:20:37.892Z,103434.19
2023-04-18T09:23:10.449Z,103438.59
2023-04-18T09:25:46.611Z,103404.50
2023-04-18T09:28:27.108Z,103433.16
2023-04-18T09:30:56.437Z,103400.13
2023-04-18T09:33:29.324Z,103408.00
2023-04-18T09:36:00.272Z,103412.53
2023-04-18T09:38:41.119Z,103419.66
2023-04-18T09:41:12.000Z,103410.66
2023-04-18T09:43:40.508Z,103369.41
2023-04-18T09:46:09.577Z,103404.31
2023-04-18T09:48:37.980Z,103421.28
2023-04-18T09:51:07.756Z,103395.22
2023-04-18T09:53:39.452Z,103398.91
2023-04-18T09:56:10.803Z,103411.31
2023-04-18T09:58:42.676Z,103405.97
2023-04-18T10:01:13.135Z,103400.59
2023-04-18T10:03:45.697Z,103389.94
2023-04-18T10:06:17.788Z,103386.09
2023-04-18T10:08:46.358Z,103405.97
2023-04-18T10:11:14.573Z,103392.63
2023-04-18T10:13:48.288Z,103398.88
2023-04-18T10:16:17.036Z,103387.38
2023-04-18T10:18:45.108Z,103397.19
2023-04-18T10:21:13.307Z,103389.94
2023-04-18T10:23:41.678Z,103393.50
2023-04-18T10:26:10.492Z,103397.91
2023-04-18T10:28:54.340Z,103404.19
2023-04-18T10:31:23.516Z,103401.50
2023-04-18T10:34:03.950Z,103390.72
2023-04-18T10:36:33.196Z,103390.84
2023-04-18T10:39:04.031Z,103393.41
2023-04-18T10:41:33.068Z,103386.22
2023-04-18T10:44:19.762Z,103397.06
2023-04-18T10:47:23.056Z,103372.84
2023-04-18T10:49:56.126Z,103367.47
2023-04-18T10:52:24.510Z,103371.00
2023-04-18T10:54:56.056Z,103373.69
2023-04-18T10:57:26.471Z,103376.41
2023-04-18T10:59:56.474Z,103366.47
2023-04-18T11:02:27.105Z,103362.00
2023-04-18T11:04:56.886Z,103377.16
2023-04-18T11:07:34.168Z,103379.78
2023-04-18T11:10:02.480Z,103371.72
2023-04-18T11:12:33.007Z,103376.13
2023-04-18T11:15:10.593Z,103375.22
2023-04-18T11:17:40.848Z,103384.16
2023-04-18T11:20:11.462Z,103384.06
2023-04-18T11:22:47.779Z,103377.69
2023-04-18T11:25:16.408Z,103357.97
2023-04-18T11:27:45.774Z,103354.25
2023-04-18T11:30:16.763Z,103355.09
2023-04-18T11:32:45.486Z,103331.66
2023-04-18T11:35:15.242Z,103349.19
2023-04-18T11:37:45.453Z,103354.94
2023-04-18T11:40:14.850Z,103352.25
2023-04-18T11:42:43.264Z,103360.25
2023-04-18T11:45:12.995Z,103345.94
2023-04-18T11:47:44.023Z,103353.00
2023-04-18T11:50:13.954Z,103363.75
2023-04-18T11:52:43.250Z,103321.53
2023-04-18T11:55:17.731Z,103352.06
2023-04-18T11:57:53.239Z,103313.91
2023-04-18T12:00:32.485Z,103373.59
2023-04-18T12:03:02.923Z,103357.34
2023-04-18T12:05:32.647Z,103351.97
2023-04-18T12:08:07.233Z,103342.97
2023-04-18T12:10:35.939Z,103339.41
2023-04-18T12:13:08.687Z,103337.59
2023-04-18T12:15:40.526Z,103333.94
2023-04-18T12:18:09.957Z,103342.88
2023-04-18T12:20:39.294Z,103308.88
2023-04-18T12:23:07.941Z,103330.38
2023-04-18T12:25:36.448Z,103340.28
2023-04-18T12:28:14.769Z,103317.78
2023-04-18T12:30:43.541Z,103323.16
2023-04-18T12:33:12.933Z,103333.94
2023-04-18T12:35:41.159Z,103324.13
2023-04-18T12:38:09.130Z,103341.22
2023-04-18T12:40:39.698Z,103330.44
2023-04-18T12:43:08.321Z,103333.22
2023-04-18T12:45:36.490Z,103343.09
2023-04-18T12:48:04.653Z,103341.34
2023-04-18T12:50:34.213Z,103350.38
2023-04-18T12:53:03.401Z,103351.44
2023-04-18T12:55:31.419Z,103344.25
2023-04-18T12:57:59.449Z,103317.97
2023-04-18T13:00:29.084Z,103325.63
2023-04-18T13:02:57.359Z,103322.94
2023-04-18T13:05:29.182Z,103313.13
2023-04-18T13:08:12.855Z,103334.63
2023-04-18T13:10:44.005Z,103340.94
2023-04-18T13:13:12.032Z,103321.31
2023-04-18T13:15:40.191Z,103325.63
2023-04-18T13:18:08.460Z,103325.63
2023-04-18T13:20:36.555Z,103329.13
2023-04-18T13:23:05.956Z,103330.00
2023-04-18T13:25:33.967Z,103330.00
2023-04-18T13:28:01.956Z,103325.41
2023-04-18T13:30:29.972Z,103329.00
2023-04-18T13:32:57.882Z,103352.25
2023-04-18T13:35:25.939Z,103338.78
2023-04-18T13:37:53.978Z,103329.88
2023-04-18T13:40:24.205Z,103329.78
2023-04-18T13:42:52.595Z,103328.91
2023-04-18T13:45:20.582Z,103350.38
2023-04-18T13:47:48.613Z,103345.84
2023-04-18T13:50:16.855Z,103338.75
2023-04-18T13:52:44.833Z,103345.94
2023-04-18T13:55:12.800Z,103345.13
2023-04-18T13:57:42.198Z,103334.38
2023-04-18T14:00:13.810Z,103348.75
2023-04-18T14:02:42.058Z,103351.53
2023-04-18T14:05:10.941Z,103361.53
2023-04-18T14:07:39.347Z,103342.72
2023-04-18T14:10:08.335Z,103329.16
2023-04-18T14:12:36.325Z,103346.50
2023-04-18T14:15:06.812Z,103341.03
2023-04-18T14:17:34.956Z,103345.53
2023-04-18T14:20:03.180Z,103356.25
2023-04-18T14:22:31.198Z,103343.63
2023-04-18T14:24:59.128Z,103336.53
2023-04-18T14:27:27.717Z,103348.09
2023-04-18T14:29:55.797Z,103350.78
2023-04-18T14:32:25.366Z,103331.06
2023-04-18T14:34:53.661Z,103345.41
2023-04-18T14:37:22.295Z,103350.84
2023-04-18T14:39:50.562Z,103341.03
2023-04-18T14:42:18.977Z,103342.91
2023-04-18T14:44:46.894Z,103271.19
2023-04-18T14:47:14.965Z,103356.59
2023-04-18T14:49:44.341Z,103333.22
2023-04-18T14:52:12.309Z,103345.81
2023-04-18T14:54:40.208Z,103344.06
2023-04-18T14:57:08.618Z,103346.81
2023-04-18T14:59:36.590Z,103314.53
2023-04-18T15:02:04.777Z,103337.06
2023-04-18T15:04:33.015Z,103337.06
2023-04-18T15:07:02.522Z,103369.53
2023-04-18T15:09:30.742Z,103336.84
2023-04-18T15:12:00.201Z,103343.44
2023-04-18T15:14:28.203Z,103350.72
2023-04-18T15:16:56.665Z,103363.50
2023-04-18T15:19:24.970Z,103339.28
2023-04-18T15:21:53.029Z,103366.25
2023-04-18T15:24:22.392Z,103350.16
2023-04-18T15:26:50.726Z,103345.81
2023-04-18T15:29:18.791Z,103346.81
2023-04-18T15:31:47.021Z,103357.78
2023-04-18T15:34:15.291Z,103348.91
2023-04-18T15:36:43.657Z,103341.09
2023-04-18T15:39:11.737Z,103359.84
2023-04-18T15:41:42.091Z,103368.91
2023-04-18T15:44:10.224Z,103356.53
2023-04-18T15:46:38.280Z,103362.94
2023-04-18T15:49:06.572Z,103355.88
2023-04-18T15:51:34.607Z,103354.16
2023-04-18T15:54:02.739Z,103364.09
2023-04-18T15:56:33.639Z,103358.84
2023-04-18T15:59:05.739Z,103348.13
2023-04-18T16:01:35.557Z,103368.03
2023-04-18T16:04:03.754Z,103358.28
2023-04-18T16:06:32.278Z,103368.22
2023-04-18T16:09:00.258Z,103369.25
2023-04-18T16:11:28.921Z,103360.63
2023-04-18T16:13:56.970Z,103343.94
2023-04-18T16:16:28.354Z,103353.56
2023-04-18T16:18:56.489Z,103374.16
2023-04-18T16:21:26.278Z,103376.91
2023-04-18T16:23:54.317Z,103392.28
2023-04-18T16:26:24.724Z,103357.56
2023-04-18T16:28:52.863Z,103385.28
2023-04-18T16:31:21.114Z,103378.22
2023-04-18T16:33:52.502Z,103379.22
2023-04-18T16:36:20.732Z,103380.19
2023-04-18T16:38:48.700Z,103363.34
2023-04-18T16:41:16.675Z,103318.16
2023-04-18T16:43:44.754Z,103374.22
2023-04-18T16:46:13.778Z,103381.47
2023-04-18T16:48:41.868Z,103380.63
2023-04-18T16:51:13.094Z,103386.88
2023-04-18T16:53:41.170Z,103387.00
2023-04-18T16:56:09.325Z,103388.94
2023-04-18T16:58:37.248Z,103393.47
2023-04-18T17:01:05.414Z,103389.97
2023-04-18T17:03:33.649Z,103392.75
2023-04-18T17:06:02.235Z,103399.09
2023-04-18T17:08:33.005Z,103399.16
2023-04-18T17:11:02.246Z,103404.69
2023-04-18T17:13:31.564Z,103401.97
2023-04-18T17:15:59.755Z,103393.03
2023-04-18T17:18:28.868Z,103397.53
2023-04-18T17:20:56.929Z,103392.31
2023-04-18T17:23:24.970Z,103407.56
2023-04-18T17:25:54.249Z,103402.34
2023-04-18T17:28:23.671Z,103405.88
2023-04-18T17:30:51.905Z,103397.13
2023-04-18T17:33:19.787Z,103412.25
2023-04-18T17:35:48.208Z,103403.38
2023-04-18T17:38:16.178Z,103404.38
2023-04-18T17:40:44.246Z,103398.13
2023-04-18T17:43:13.581Z,103410.66
2023-04-18T17:45:42.387Z,103409.81
2023-04-18T17:48:10.400Z,103418.59
2023-04-18T17:50:38.455Z,103409.69
2023-04-18T17:53:06.418Z,103401.66
2023-04-18T17:55:34.513Z,103408.63
2023-04-18T17:58:02.390Z,103405.06
2023-04-18T18:00:31.966Z,103406.75
2023-04-18T18:03:01.400Z,103407.66
2023-04-18T18:05:30.260Z,103411.31
2023-04-18T18:07:58.630Z,103406.72
2023-04-18T18:10:26.978Z,103405.06
2023-04-18T18:12:54.982Z,103408.53
2023-04-18T18:15:24.124Z,103411.13
2023-04-18T18:17:54.819Z,103412.13
2023-04-18T18:20:23.175Z,103399.81
2023-04-18T18:22:51.452Z,103421.94
2023-04-18T18:25:20.729Z,103421.13
2023-04-18T18:27:49.421Z,103415.06
2023-04-18T18:30:17.463Z,103415.81
2023-04-18T18:32:45.507Z,103418.50
2023-04-18T18:35:15.071Z,103418.50
2023-04-18T18:37:43.079Z,103431.03
2023-04-18T18:40:11.776Z,103423.94
2023-04-18T18:42:40.049Z,103425.72
2023-04-18T18:45:09.446Z,103423.13
2023-04-18T18:47:39.640Z,103427.53
2023-04-18T18:50:08.647Z,103424.03
2023-04-18T18:52:40.650Z,103423.13
2023-04-18T18:55:09.838Z,103424.97
2023-04-18T18:57:38.214Z,103417.88
2023-04-18T19:00:09.365Z,103426.84
2023-04-18T19:02:37.828Z,103425.06
2023-04-18T19:05:06.868Z,103401.50
2023-04-18T19:07:34.880Z,103426.94
2023-04-18T19:10:04.683Z,103418.19
2023-04-18T19:12:32.711Z,103418.19
2023-04-18T19:15:00.728Z,103421.66
2023-04-18T19:17:28.729Z,103426.19
2023-04-18T19:19:59.203Z,103392.09
2023-04-18T19:22:27.268Z,103416.44
2023-04-18T19:24:55.149Z,103418.41
2023-04-18T19:27:24.595Z,103419.19
2023-04-18T19:29:52.671Z,103416.56
2023-04-18T19:32:20.889Z,103412.31
2023-04-18T19:34:48.900Z,103421.09
2023-04-18T19:37:16.863Z,103418.41
2023-04-18T19:39:44.882Z,103418.47
2023-04-18T19:42:12.862Z,103403.56
2023-04-18T19:44:42.286Z,103421.22
2023-04-18T19:47:10.347Z,103415.00
2023-04-18T19:49:38.342Z,103417.69
2023-04-18T19:52:06.890Z,103414.19
2023-04-18T19:54:35.041Z,103416.00
2023-04-18T19:57:04.642Z,103425.88
2023-04-18T19:59:32.704Z,103422.34
2023-04-18T20:02:05.090Z,103420.63
2023-04-18T20:04:36.516Z,103404.84
2023-04-18T20:07:04.816Z,103418.84
2023-04-18T20:09:32.767Z,103415.34
2023-04-18T20:12:01.928Z,103429.69
2023-04-18T20:14:30.598Z,103421.66
2023-04-18T20:16:58.619Z,103421.72
2023-04-18T20:19:29.701Z,103421.72
2023-04-18T20:21:57.923Z,103419.06
2023-04-18T20:24:28.052Z,103414.66
2023-04-18T20:26:57.182Z,103413.78
2023-04-18T20:29:25.228Z,103409.31
2023-04-18T20:31:53.253Z,103412.06
2023-04-18T20:34:21.377Z,103410.28
2023-04-18T20:36:52.493Z,103427.28
2023-04-18T20:39:20.765Z,103424.66
2023-04-18T20:41:51.493Z,103420.19
2023-04-18T20:44:20.940Z,103416.66
2023-04-18T20:46:48.961Z,103425.66
2023-04-18T20:49:17.006Z,103424.78
2023-04-18T20:51:45.120Z,103430.13
2023-04-18T20:54:14.722Z,103428.38
2023-04-18T20:56:43.001Z,103421.31
2023-04-18T20:59:11.098Z,103418.63
2023-04-18T21:01:39.237Z,103429.34
2023-04-18T21:04:07.502Z,103421.38
2023-04-18T21:06:36.571Z,103420.50
2023-04-18T21:09:04.755Z,103417.81
2023-04-18T21:11:34.107Z,103419.69
2023-04-18T21:14:03.739Z,103417.03
2023-04-18T21:16:31.832Z,103415.31
2023-04-18T21:19:00.035Z,103420.66
2023-04-18T21:21:28.159Z,103410.91
2023-04-18T21:23:56.066Z,103416.28
2023-04-18T21:26:24.091Z,103418.09
2023-04-18T21:28:58.330Z,103412.78
2023-04-18T21:31:27.700Z,103414.59
2023-04-18T21:33:56.212Z,103418.31
2023-04-18T21:36:26.418Z,103413.88
2023-04-18T21:38:54.872Z,103372.66
2023-04-18T21:41:23.148Z,103410.25
2023-04-18T21:43:51.422Z,103405.81
2023-04-18T21:46:21.208Z,103402.25
2023-04-18T21:48:49.682Z,103406.00
2023-04-18T21:51:18.322Z,103403.22
2023-04-18T21:53:46.307Z,103406.81
2023-04-18T21:56:14.386Z,103404.19
2023-04-18T21:58:42.367Z,103409.56
2023-04-18T22:01:10.406Z,103409.59
2023-04-18T22:03:40.096Z,103406.00
2023-04-18T22:06:08.375Z,103406.91
2023-04-18T22:08:36.648Z,103398.06
2023-04-18T22:11:05.149Z,103403.41
2023-04-18T22:13:33.916Z,103403.41
2023-04-18T22:16:03.352Z,103399.03
2023-04-18T22:18:33.721Z,103403.47
2023-04-18T22:21:04.026Z,103406.16
2023-04-18T22:23:32.163Z,103399.09
2023-04-18T22:26:00.355Z,103397.34
2023-04-18T22:28:28.952Z,103401.88
2023-04-18T22:30:57.260Z,103403.75
2023-04-18T22:33:25.387Z,103400.22
2023-04-18T22:35:54.185Z,103394.03
2023-04-18T22:38:23.555Z,103405.72
2023-04-18T22:40:51.601Z,103400.38
2023-04-18T22:43:22.845Z,103393.31
2023-04-18T22:45:51.283Z,103406.78
2023-04-18T22:48:19.769Z,103389.84
2023-04-18T22:50:47.763Z,103383.69
2023-04-18T22:53:15.999Z,103381.22
2023-04-18T22:55:46.142Z,103376.63
2023-04-18T22:58:14.527Z,103384.75
2023-04-18T23:00:43.818Z,103383.03
2023-04-18T23:03:11.945Z,103377.75
2023-04-18T23:05:40.024Z,103384.91
2023-04-18T23:08:08.037Z,103382.28
2023-04-18T23:10:36.249Z,103376.16
2023-04-18T23:13:05.761Z,103380.59
2023-04-18T23:15:33.859Z,103385.97
2023-04-18T23:18:01.909Z,103381.56
2023-04-18T23:20:29.992Z,103383.38
2023-04-18T23:22:57.986Z,103376.25
2023-04-18T23:25:25.964Z,103378.03
2023-04-18T23:27:53.954Z,103387.06
2023-04-18T23:30:23.288Z,103387.94
2023-04-18T23:32:51.223Z,103383.63
2023-04-18T23:35:19.127Z,103387.16
2023-04-18T23:37:47.149Z,103388.97
2023-04-18T23:40:15.004Z,103388.97
2023-04-18T23:42:43.876Z,103392.63
2023-04-18T23:45:12.628Z,103379.38
2023-04-18T23:47:42.043Z,103394.44
2023-04-18T23:50:10.915Z,103389.09
2023-04-18T23:52:39.224Z,103384.72
2023-04-18T23:55:08.066Z,103389.16
2023-04-18T23:57:36.110Z,103377.72
